sensor_id;sensor_type;location;lat;lon;timestamp;temperature;humidity
15359;DHT22;7779;49.596;11.070;2023-09-12T00:01:34;18.40;72.70
15359;DHT22;7779;49.596;11.070;2023-09-12T00:04:00;18.40;72.90
15359;DHT22;7779;49.596;11.070;2023-09-12T00:06:26;18.40;73.00
15359;DHT22;7779;49.596;11.070;2023-09-12T00:08:52;18.40;73.20
15359;DHT22;7779;49.596;11.070;2023-09-12T00:11:18;18.30;73.20
15359;DHT22;7779;49.596;11.070;2023-09-12T00:13:44;18.30;73.20
15359;DHT22;7779;49.596;11.070;2023-09-12T00:16:10;18.30;73.30
15359;DHT22;7779;49.596;11.070;2023-09-12T00:18:39;18.30;73.40
15359;DHT22;7779;49.596;11.070;2023-09-12T00:21:05;18.20;73.80
15359;DHT22;7779;49.596;11.070;2023-09-12T00:23:31;18.20;73.50
15359;DHT22;7779;49.596;11.070;2023-09-12T00:25:57;18.20;73.50
15359;DHT22;7779;49.596;11.070;2023-09-12T00:28:23;18.20;73.60
15359;DHT22;7779;49.596;11.070;2023-09-12T00:30:49;18.10;73.50
15359;DHT22;7779;49.596;11.070;2023-09-12T00:33:15;18.10;73.50
15359;DHT22;7779;49.596;11.070;2023-09-12T00:35:41;18.10;73.50
15359;DHT22;7779;49.596;11.070;2023-09-12T00:38:08;18.00;73.40
15359;DHT22;7779;49.596;11.070;2023-09-12T00:40:34;18.00;73.60
15359;DHT22;7779;49.596;11.070;2023-09-12T00:43:00;18.00;73.50
15359;DHT22;7779;49.596;11.070;2023-09-12T00:45:26;17.90;73.50
15359;DHT22;7779;49.596;11.070;2023-09-12T00:47:53;17.90;73.60
15359;DHT22;7779;49.596;11.070;2023-09-12T00:50:20;17.90;73.70
15359;DHT22;7779;49.596;11.070;2023-09-12T00:52:48;17.90;73.80
15359;DHT22;7779;49.596;11.070;2023-09-12T00:55:15;17.80;73.70
15359;DHT22;7779;49.596;11.070;2023-09-12T00:57:41;17.80;73.70
15359;DHT22;7779;49.596;11.070;2023-09-12T01:00:11;17.80;73.70
15359;DHT22;7779;49.596;11.070;2023-09-12T01:02:40;17.70;73.90
15359;DHT22;7779;49.596;11.070;2023-09-12T01:05:07;17.70;73.70
15359;DHT22;7779;49.596;11.070;2023-09-12T01:07:38;17.70;73.80
15359;DHT22;7779;49.596;11.070;2023-09-12T01:10:07;17.60;74.20
15359;DHT22;7779;49.596;11.070;2023-09-12T01:12:34;17.60;74.20
15359;DHT22;7779;49.596;11.070;2023-09-12T01:14:59;17.60;73.90
15359;DHT22;7779;49.596;11.070;2023-09-12T01:17:26;17.60;74.00
15359;DHT22;7779;49.596;11.070;2023-09-12T01:19:53;17.60;74.00
15359;DHT22;7779;49.596;11.070;2023-09-12T01:28:05;17.50;74.50
15359;DHT22;7779;49.596;11.070;2023-09-12T01:30:35;17.50;73.90
15359;DHT22;7779;49.596;11.070;2023-09-12T01:33:04;17.50;73.90
15359;DHT22;7779;49.596;11.070;2023-09-12T01:35:30;17.40;74.00
15359;DHT22;7779;49.596;11.070;2023-09-12T01:37:56;17.40;74.00
15359;DHT22;7779;49.596;11.070;2023-09-12T01:40:31;17.40;74.00
15359;DHT22;7779;49.596;11.070;2023-09-12T01:43:00;17.40;74.60
15359;DHT22;7779;49.596;11.070;2023-09-12T01:45:29;17.30;74.10
15359;DHT22;7779;49.596;11.070;2023-09-12T01:47:55;17.30;74.70
15359;DHT22;7779;49.596;11.070;2023-09-12T01:50:22;17.30;74.30
15359;DHT22;7779;49.596;11.070;2023-09-12T01:52:50;17.30;74.30
15359;DHT22;7779;49.596;11.070;2023-09-12T01:55:16;17.30;74.40
15359;DHT22;7779;49.596;11.070;2023-09-12T01:57:43;17.20;74.30
15359;DHT22;7779;49.596;11.070;2023-09-12T02:00:10;17.20;74.40
15359;DHT22;7779;49.596;11.070;2023-09-12T02:02:38;17.20;74.40
15359;DHT22;7779;49.596;11.070;2023-09-12T02:05:20;17.20;74.40
15359;DHT22;7779;49.596;11.070;2023-09-12T02:07:48;17.20;75.00
15359;DHT22;7779;49.596;11.070;2023-09-12T02:10:13;17.20;74.40
15359;DHT22;7779;49.596;11.070;2023-09-12T02:12:39;17.20;74.50
15359;DHT22;7779;49.596;11.070;2023-09-12T02:15:07;17.20;74.50
15359;DHT22;7779;49.596;11.070;2023-09-12T02:17:33;17.10;74.50
15359;DHT22;7779;49.596;11.070;2023-09-12T02:19:59;17.10;74.50
15359;DHT22;7779;49.596;11.070;2023-09-12T02:22:25;17.10;74.50
15359;DHT22;7779;49.596;11.070;2023-09-12T02:24:51;17.10;74.60
15359;DHT22;7779;49.596;11.070;2023-09-12T02:27:17;17.00;74.40
15359;DHT22;7779;49.596;11.070;2023-09-12T02:29:43;17.00;74.50
15359;DHT22;7779;49.596;11.070;2023-09-12T02:32:10;17.00;74.60
15359;DHT22;7779;49.596;11.070;2023-09-12T02:34:35;17.00;74.60
15359;DHT22;7779;49.596;11.070;2023-09-12T02:37:01;17.00;74.60
15359;DHT22;7779;49.596;11.070;2023-09-12T02:39:27;16.90;74.50
15359;DHT22;7779;49.596;11.070;2023-09-12T02:41:53;16.90;74.50
15359;DHT22;7779;49.596;11.070;2023-09-12T02:44:19;16.90;74.50
15359;DHT22;7779;49.596;11.070;2023-09-12T02:46:45;16.90;74.60
15359;DHT22;7779;49.596;11.070;2023-09-12T02:49:11;16.90;74.60
15359;DHT22;7779;49.596;11.070;2023-09-12T02:51:39;16.80;74.50
15359;DHT22;7779;49.596;11.070;2023-09-12T02:54:06;16.80;74.80
15359;DHT22;7779;49.596;11.070;2023-09-12T02:56:32;16.80;74.50
15359;DHT22;7779;49.596;11.070;2023-09-12T02:58:58;16.70;74.50
15359;DHT22;7779;49.596;11.070;2023-09-12T03:01:23;16.70;74.50
15359;DHT22;7779;49.596;11.070;2023-09-12T03:03:54;16.70;74.50
15359;DHT22;7779;49.596;11.070;2023-09-12T03:06:20;16.70;74.60
15359;DHT22;7779;49.596;11.070;2023-09-12T03:08:47;16.70;74.60
15359;DHT22;7779;49.596;11.070;2023-09-12T03:11:13;16.60;74.60
15359;DHT22;7779;49.596;11.070;2023-09-12T03:13:40;16.60;74.70
15359;DHT22;7779;49.596;11.070;2023-09-12T03:16:14;16.60;74.70
15359;DHT22;7779;49.596;11.070;2023-09-12T03:18:40;16.60;75.30
15359;DHT22;7779;49.596;11.070;2023-09-12T03:21:06;16.60;74.70
15359;DHT22;7779;49.596;11.070;2023-09-12T03:23:32;16.60;74.70
15359;DHT22;7779;49.596;11.070;2023-09-12T03:26:05;16.50;74.60
15359;DHT22;7779;49.596;11.070;2023-09-12T03:28:32;16.50;75.20
15359;DHT22;7779;49.596;11.070;2023-09-12T03:31:08;16.50;74.70
15359;DHT22;7779;49.596;11.070;2023-09-12T03:33:37;16.50;75.40
15359;DHT22;7779;49.596;11.070;2023-09-12T03:36:04;16.40;74.60
15359;DHT22;7779;49.596;11.070;2023-09-12T03:38:31;16.40;74.60
15359;DHT22;7779;49.596;11.070;2023-09-12T03:40:56;16.40;74.70
15359;DHT22;7779;49.596;11.070;2023-09-12T03:43:22;16.40;74.70
15359;DHT22;7779;49.596;11.070;2023-09-12T03:45:48;16.40;74.80
15359;DHT22;7779;49.596;11.070;2023-09-12T03:48:15;16.30;74.80
15359;DHT22;7779;49.596;11.070;2023-09-12T03:50:40;16.30;74.90
15359;DHT22;7779;49.596;11.070;2023-09-12T03:53:06;16.30;74.90
15359;DHT22;7779;49.596;11.070;2023-09-12T03:55:32;16.30;75.00
15359;DHT22;7779;49.596;11.070;2023-09-12T03:57:58;16.20;75.00
15359;DHT22;7779;49.596;11.070;2023-09-12T04:00:23;16.20;75.00
15359;DHT22;7779;49.596;11.070;2023-09-12T04:02:49;16.20;75.10
15359;DHT22;7779;49.596;11.070;2023-09-12T04:05:15;16.20;75.10
15359;DHT22;7779;49.596;11.070;2023-09-12T04:07:41;16.20;75.10
15359;DHT22;7779;49.596;11.070;2023-09-12T04:10:07;16.20;75.20
15359;DHT22;7779;49.596;11.070;2023-09-12T04:12:32;16.20;76.00
15359;DHT22;7779;49.596;11.070;2023-09-12T04:14:58;16.10;75.20
15359;DHT22;7779;49.596;11.070;2023-09-12T04:17:24;16.10;75.30
15359;DHT22;7779;49.596;11.070;2023-09-12T04:19:50;16.10;75.30
15359;DHT22;7779;49.596;11.070;2023-09-12T04:22:15;16.10;76.40
15359;DHT22;7779;49.596;11.070;2023-09-12T04:24:41;16.10;75.40
15359;DHT22;7779;49.596;11.070;2023-09-12T04:27:07;16.10;75.40
15359;DHT22;7779;49.596;11.070;2023-09-12T04:29:33;16.10;75.40
15359;DHT22;7779;49.596;11.070;2023-09-12T04:32:02;16.10;75.40
15359;DHT22;7779;49.596;11.070;2023-09-12T04:34:29;16.10;75.50
15359;DHT22;7779;49.596;11.070;2023-09-12T04:36:56;16.00;75.40
15359;DHT22;7779;49.596;11.070;2023-09-12T04:39:22;16.00;75.40
15359;DHT22;7779;49.596;11.070;2023-09-12T04:41:48;16.00;75.40
15359;DHT22;7779;49.596;11.070;2023-09-12T04:44:14;16.00;75.40
15359;DHT22;7779;49.596;11.070;2023-09-12T04:46:40;16.00;75.40
15359;DHT22;7779;49.596;11.070;2023-09-12T04:49:05;16.00;75.50
15359;DHT22;7779;49.596;11.070;2023-09-12T04:51:32;15.90;75.40
15359;DHT22;7779;49.596;11.070;2023-09-12T04:53:57;15.90;75.50
15359;DHT22;7779;49.596;11.070;2023-09-12T04:56:23;15.90;75.50
15359;DHT22;7779;49.596;11.070;2023-09-12T04:58:52;15.90;75.50
15359;DHT22;7779;49.596;11.070;2023-09-12T05:01:17;15.90;75.50
15359;DHT22;7779;49.596;11.070;2023-09-12T05:03:44;15.90;75.60
15359;DHT22;7779;49.596;11.070;2023-09-12T05:06:10;15.90;75.70
15359;DHT22;7779;49.596;11.070;2023-09-12T05:08:37;15.90;75.90
15359;DHT22;7779;49.596;11.070;2023-09-12T05:11:03;15.90;75.90
15359;DHT22;7779;49.596;11.070;2023-09-12T05:13:29;15.90;76.00
15359;DHT22;7779;49.596;11.070;2023-09-12T05:15:56;15.90;76.90
15359;DHT22;7779;49.596;11.070;2023-09-12T05:18:23;16.00;76.60
15359;DHT22;7779;49.596;11.070;2023-09-12T05:20:49;16.00;76.90
15359;DHT22;7779;49.596;11.070;2023-09-12T05:23:15;16.00;77.10
15359;DHT22;7779;49.596;11.070;2023-09-12T05:25:41;16.10;77.50
15359;DHT22;7779;49.596;11.070;2023-09-12T05:28:07;16.10;77.60
15359;DHT22;7779;49.596;11.070;2023-09-12T05:30:33;16.20;77.80
15359;DHT22;7779;49.596;11.070;2023-09-12T05:32:58;16.20;77.80
15359;DHT22;7779;49.596;11.070;2023-09-12T05:35:24;16.30;77.90
15359;DHT22;7779;49.596;11.070;2023-09-12T05:37:51;16.30;77.90
15359;DHT22;7779;49.596;11.070;2023-09-12T05:40:18;16.40;78.00
15359;DHT22;7779;49.596;11.070;2023-09-12T05:42:44;16.50;78.00
15359;DHT22;7779;49.596;11.070;2023-09-12T05:45:10;16.60;78.00
15359;DHT22;7779;49.596;11.070;2023-09-12T05:47:36;16.70;78.10
15359;DHT22;7779;49.596;11.070;2023-09-12T05:50:02;16.70;78.10
15359;DHT22;7779;49.596;11.070;2023-09-12T05:52:32;16.80;78.20
15359;DHT22;7779;49.596;11.070;2023-09-12T05:54:59;16.90;78.30
15359;DHT22;7779;49.596;11.070;2023-09-12T05:57:25;17.00;78.40
15359;DHT22;7779;49.596;11.070;2023-09-12T05:59:50;17.10;78.50
15359;DHT22;7779;49.596;11.070;2023-09-12T06:02:16;17.10;78.60
15359;DHT22;7779;49.596;11.070;2023-09-12T06:04:43;17.30;78.80
15359;DHT22;7779;49.596;11.070;2023-09-12T06:07:09;17.30;78.80
15359;DHT22;7779;49.596;11.070;2023-09-12T06:09:35;17.40;78.90
15359;DHT22;7779;49.596;11.070;2023-09-12T06:12:01;17.60;79.10
15359;DHT22;7779;49.596;11.070;2023-09-12T06:14:27;17.70;79.20
15359;DHT22;7779;49.596;11.070;2023-09-12T06:16:53;17.80;79.30
15359;DHT22;7779;49.596;11.070;2023-09-12T06:19:19;17.90;79.40
15359;DHT22;7779;49.596;11.070;2023-09-12T06:21:45;18.10;79.50
15359;DHT22;7779;49.596;11.070;2023-09-12T06:24:19;18.20;79.50
15359;DHT22;7779;49.596;11.070;2023-09-12T06:26:49;18.40;79.70
15359;DHT22;7779;49.596;11.070;2023-09-12T06:29:15;18.50;79.40
15359;DHT22;7779;49.596;11.070;2023-09-12T06:31:41;18.60;79.10
15359;DHT22;7779;49.596;11.070;2023-09-12T06:34:08;18.80;79.20
15359;DHT22;7779;49.596;11.070;2023-09-12T06:36:34;18.90;78.90
15359;DHT22;7779;49.596;11.070;2023-09-12T06:39:00;19.00;78.70
15359;DHT22;7779;49.596;11.070;2023-09-12T06:41:26;19.20;78.70
15359;DHT22;7779;49.596;11.070;2023-09-12T06:43:53;19.30;78.80
15359;DHT22;7779;49.596;11.070;2023-09-12T06:46:19;19.40;78.70
15359;DHT22;7779;49.596;11.070;2023-09-12T06:48:45;19.50;78.70
15359;DHT22;7779;49.596;11.070;2023-09-12T06:51:12;19.60;78.60
15359;DHT22;7779;49.596;11.070;2023-09-12T06:53:38;19.70;78.60
15359;DHT22;7779;49.596;11.070;2023-09-12T06:56:05;19.90;79.20
15359;DHT22;7779;49.596;11.070;2023-09-12T06:58:31;20.00;78.50
15359;DHT22;7779;49.596;11.070;2023-09-12T07:01:05;20.10;78.20
15359;DHT22;7779;49.596;11.070;2023-09-12T07:03:35;20.30;78.80
15359;DHT22;7779;49.596;11.070;2023-09-12T07:06:02;20.40;78.00
15359;DHT22;7779;49.596;11.070;2023-09-12T07:08:30;20.50;77.90
15359;DHT22;7779;49.596;11.070;2023-09-12T07:10:56;20.70;78.00
15359;DHT22;7779;49.596;11.070;2023-09-12T07:13:23;20.80;78.00
15359;DHT22;7779;49.596;11.070;2023-09-12T07:15:52;20.90;77.80
15359;DHT22;7779;49.596;11.070;2023-09-12T07:18:18;21.10;77.50
15359;DHT22;7779;49.596;11.070;2023-09-12T07:20:45;21.20;77.40
15359;DHT22;7779;49.596;11.070;2023-09-12T07:23:11;21.30;77.20
15359;DHT22;7779;49.596;11.070;2023-09-12T07:25:41;21.50;77.20
15359;DHT22;7779;49.596;11.070;2023-09-12T07:28:07;21.60;77.00
15359;DHT22;7779;49.596;11.070;2023-09-12T07:30:34;21.70;76.90
15359;DHT22;7779;49.596;11.070;2023-09-12T07:33:00;21.90;76.80
15359;DHT22;7779;49.596;11.070;2023-09-12T07:35:28;21.90;76.60
15359;DHT22;7779;49.596;11.070;2023-09-12T07:37:53;22.10;76.60
15359;DHT22;7779;49.596;11.070;2023-09-12T07:40:19;22.30;76.60
15359;DHT22;7779;49.596;11.070;2023-09-12T07:42:45;22.40;76.30
15359;DHT22;7779;49.596;11.070;2023-09-12T07:45:10;22.50;76.20
15359;DHT22;7779;49.596;11.070;2023-09-12T07:47:37;22.70;76.10
15359;DHT22;7779;49.596;11.070;2023-09-12T07:50:03;22.80;75.90
15359;DHT22;7779;49.596;11.070;2023-09-12T07:52:29;22.90;75.70
15359;DHT22;7779;49.596;11.070;2023-09-12T07:55:02;23.00;75.50
15359;DHT22;7779;49.596;11.070;2023-09-12T07:57:29;23.20;75.20
15359;DHT22;7779;49.596;11.070;2023-09-12T07:59:56;23.30;75.20
15359;DHT22;7779;49.596;11.070;2023-09-12T08:02:22;23.40;75.00
15359;DHT22;7779;49.596;11.070;2023-09-12T08:04:49;23.50;74.80
15359;DHT22;7779;49.596;11.070;2023-09-12T08:07:16;23.60;74.70
15359;DHT22;7779;49.596;11.070;2023-09-12T08:09:56;23.70;74.30
15359;DHT22;7779;49.596;11.070;2023-09-12T08:12:24;23.90;73.50
15359;DHT22;7779;49.596;11.070;2023-09-12T08:14:51;24.00;73.90
15359;DHT22;7779;49.596;11.070;2023-09-12T08:17:18;24.10;73.60
15359;DHT22;7779;49.596;11.070;2023-09-12T08:19:45;24.10;73.20
15359;DHT22;7779;49.596;11.070;2023-09-12T08:22:11;24.20;73.00
15359;DHT22;7779;49.596;11.070;2023-09-12T08:24:38;24.30;72.80
15359;DHT22;7779;49.596;11.070;2023-09-12T08:27:05;24.40;72.70
15359;DHT22;7779;49.596;11.070;2023-09-12T08:29:32;24.50;72.60
15359;DHT22;7779;49.596;11.070;2023-09-12T08:31:59;24.50;72.30
15359;DHT22;7779;49.596;11.070;2023-09-12T08:34:26;24.60;72.20
15359;DHT22;7779;49.596;11.070;2023-09-12T08:36:52;24.70;72.10
15359;DHT22;7779;49.596;11.070;2023-09-12T08:39:26;24.70;71.90
15359;DHT22;7779;49.596;11.070;2023-09-12T08:41:53;24.80;71.40
15359;DHT22;7779;49.596;11.070;2023-09-12T08:44:20;24.90;71.60
15359;DHT22;7779;49.596;11.070;2023-09-12T08:46:47;24.90;71.40
15359;DHT22;7779;49.596;11.070;2023-09-12T08:49:14;25.00;71.50
15359;DHT22;7779;49.596;11.070;2023-09-12T08:51:41;25.10;71.40
15359;DHT22;7779;49.596;11.070;2023-09-12T08:54:07;25.20;71.50
15359;DHT22;7779;49.596;11.070;2023-09-12T08:56:35;25.30;71.30
15359;DHT22;7779;49.596;11.070;2023-09-12T08:59:04;25.40;71.10
15359;DHT22;7779;49.596;11.070;2023-09-12T09:01:30;25.50;70.90
15359;DHT22;7779;49.596;11.070;2023-09-12T09:03:58;25.50;70.70
15359;DHT22;7779;49.596;11.070;2023-09-12T09:06:25;25.60;70.50
15359;DHT22;7779;49.596;11.070;2023-09-12T09:08:51;25.70;70.20
15359;DHT22;7779;49.596;11.070;2023-09-12T09:11:18;25.80;70.10
15359;DHT22;7779;49.596;11.070;2023-09-12T09:13:43;24.90;69.10
15359;DHT22;7779;49.596;11.070;2023-09-12T09:16:14;26.00;69.70
15359;DHT22;7779;49.596;11.070;2023-09-12T09:19:02;26.10;69.10
15359;DHT22;7779;49.596;11.070;2023-09-12T09:21:33;26.20;68.20
15359;DHT22;7779;49.596;11.070;2023-09-12T09:24:08;26.30;69.00
15359;DHT22;7779;49.596;11.070;2023-09-12T09:29:15;26.40;67.60
15359;DHT22;7779;49.596;11.070;2023-09-12T09:31:47;26.60;68.10
15359;DHT22;7779;49.596;11.070;2023-09-12T09:34:19;26.70;67.70
15359;DHT22;7779;49.596;11.070;2023-09-12T09:39:16;26.80;67.60
15359;DHT22;7779;49.596;11.070;2023-09-12T09:41:47;26.90;67.50
15359;DHT22;7779;49.596;11.070;2023-09-12T09:44:14;27.00;67.00
15359;DHT22;7779;49.596;11.070;2023-09-12T09:46:43;27.10;67.10
15359;DHT22;7779;49.596;11.070;2023-09-12T09:49:16;27.20;66.30
15359;DHT22;7779;49.596;11.070;2023-09-12T09:51:44;27.30;65.50
15359;DHT22;7779;49.596;11.070;2023-09-12T09:54:11;27.40;66.00
15359;DHT22;7779;49.596;11.070;2023-09-12T09:56:48;27.50;65.70
15359;DHT22;7779;49.596;11.070;2023-09-12T09:59:19;27.60;63.80
15359;DHT22;7779;49.596;11.070;2023-09-12T10:01:48;27.70;64.90
15359;DHT22;7779;49.596;11.070;2023-09-12T10:04:16;27.70;64.60
15359;DHT22;7779;49.596;11.070;2023-09-12T10:06:45;27.80;64.30
15359;DHT22;7779;49.596;11.070;2023-09-12T10:09:13;27.90;63.90
15359;DHT22;7779;49.596;11.070;2023-09-12T10:11:42;28.00;63.80
15359;DHT22;7779;49.596;11.070;2023-09-12T10:14:11;28.10;63.40
15359;DHT22;7779;49.596;11.070;2023-09-12T10:16:48;28.10;63.30
15359;DHT22;7779;49.596;11.070;2023-09-12T10:19:23;28.20;62.30
15359;DHT22;7779;49.596;11.070;2023-09-12T10:24:25;28.30;62.30
15359;DHT22;7779;49.596;11.070;2023-09-12T10:26:53;28.40;62.50
15359;DHT22;7779;49.596;11.070;2023-09-12T10:29:21;28.40;62.20
15359;DHT22;7779;49.596;11.070;2023-09-12T10:31:48;28.50;62.10
15359;DHT22;7779;49.596;11.070;2023-09-12T10:34:15;28.60;62.00
15359;DHT22;7779;49.596;11.070;2023-09-12T10:36:43;28.70;62.00
15359;DHT22;7779;49.596;11.070;2023-09-12T10:39:10;28.70;61.70
15359;DHT22;7779;49.596;11.070;2023-09-12T10:41:38;28.80;60.30
15359;DHT22;7779;49.596;11.070;2023-09-12T10:44:15;28.90;61.20
15359;DHT22;7779;49.596;11.070;2023-09-12T10:46:43;29.00;59.60
15359;DHT22;7779;49.596;11.070;2023-09-12T10:49:11;29.00;60.40
15359;DHT22;7779;49.596;11.070;2023-09-12T10:51:46;29.10;60.10
15359;DHT22;7779;49.596;11.070;2023-09-12T10:54:23;29.20;59.40
15359;DHT22;7779;49.596;11.070;2023-09-12T10:57:10;29.20;59.60
15359;DHT22;7779;49.596;11.070;2023-09-12T11:02:28;29.30;58.70
15359;DHT22;7779;49.596;11.070;2023-09-12T11:05:03;29.40;59.40
15359;DHT22;7779;49.596;11.070;2023-09-12T11:12:41;29.60;58.10
15359;DHT22;7779;49.596;11.070;2023-09-12T11:15:09;29.70;58.80
15359;DHT22;7779;49.596;11.070;2023-09-12T11:17:39;29.70;58.50
15359;DHT22;7779;49.596;11.070;2023-09-12T11:20:07;29.80;58.30
15359;DHT22;7779;49.596;11.070;2023-09-12T11:22:43;29.80;58.00
15359;DHT22;7779;49.596;11.070;2023-09-12T11:25:23;29.90;57.80
15359;DHT22;7779;49.596;11.070;2023-09-12T11:30:21;30.00;57.60
15359;DHT22;7779;49.596;11.070;2023-09-12T11:32:53;30.00;55.60
15359;DHT22;7779;49.596;11.070;2023-09-12T11:35:24;30.10;57.50
15359;DHT22;7779;49.596;11.070;2023-09-12T11:37:56;30.10;56.80
15359;DHT22;7779;49.596;11.070;2023-09-12T11:43:00;30.20;56.50
15359;DHT22;7779;49.596;11.070;2023-09-12T11:45:27;30.30;56.40
15359;DHT22;7779;49.596;11.070;2023-09-12T11:47:53;30.30;56.10
15359;DHT22;7779;49.596;11.070;2023-09-12T11:50:55;30.30;55.90
15359;DHT22;7779;49.596;11.070;2023-09-12T11:53:27;30.40;54.60
15359;DHT22;7779;49.596;11.070;2023-09-12T11:55:59;30.40;55.50
15359;DHT22;7779;49.596;11.070;2023-09-12T11:58:26;30.50;54.80
15359;DHT22;7779;49.596;11.070;2023-09-12T12:00:57;30.50;54.90
15359;DHT22;7779;49.596;11.070;2023-09-12T12:03:25;30.50;54.60
15359;DHT22;7779;49.596;11.070;2023-09-12T12:05:54;30.50;54.50
15359;DHT22;7779;49.596;11.070;2023-09-12T12:08:20;30.60;54.70
15359;DHT22;7779;49.596;11.070;2023-09-12T12:10:50;30.60;54.70
15359;DHT22;7779;49.596;11.070;2023-09-12T12:13:17;30.70;54.30
15359;DHT22;7779;49.596;11.070;2023-09-12T12:15:44;30.60;54.50
15359;DHT22;7779;49.596;11.070;2023-09-12T12:18:10;30.80;54.40
15359;DHT22;7779;49.596;11.070;2023-09-12T12:20:36;30.70;54.10
15359;DHT22;7779;49.596;11.070;2023-09-12T12:23:02;30.80;53.90
15359;DHT22;7779;49.596;11.070;2023-09-12T12:25:32;30.80;53.50
15359;DHT22;7779;49.596;11.070;2023-09-12T12:28:00;30.80;52.90
15359;DHT22;7779;49.596;11.070;2023-09-12T12:30:30;30.80;53.10
15359;DHT22;7779;49.596;11.070;2023-09-12T12:32:59;30.90;52.70
15359;DHT22;7779;49.596;11.070;2023-09-12T12:35:27;30.90;53.00
15359;DHT22;7779;49.596;11.070;2023-09-12T12:37:55;30.90;52.90
15359;DHT22;7779;49.596;11.070;2023-09-12T12:40:24;30.90;52.80
15359;DHT22;7779;49.596;11.070;2023-09-12T12:42:50;30.90;52.80
15359;DHT22;7779;49.596;11.070;2023-09-12T12:45:18;30.90;52.80
15359;DHT22;7779;49.596;11.070;2023-09-12T12:47:45;30.90;52.60
15359;DHT22;7779;49.596;11.070;2023-09-12T12:50:12;31.00;52.70
15359;DHT22;7779;49.596;11.070;2023-09-12T12:52:43;31.00;52.40
15359;DHT22;7779;49.596;11.070;2023-09-12T12:55:13;31.10;52.20
15359;DHT22;7779;49.596;11.070;2023-09-12T12:57:45;31.10;51.90
15359;DHT22;7779;49.596;11.070;2023-09-12T13:00:15;31.00;51.60
15359;DHT22;7779;49.596;11.070;2023-09-12T13:02:43;31.10;51.40
15359;DHT22;7779;49.596;11.070;2023-09-12T13:05:29;31.00;51.40
15359;DHT22;7779;49.596;11.070;2023-09-12T13:07:58;31.10;50.60
15359;DHT22;7779;49.596;11.070;2023-09-12T13:10:24;31.10;51.50
15359;DHT22;7779;49.596;11.070;2023-09-12T13:12:50;31.10;51.40
15359;DHT22;7779;49.596;11.070;2023-09-12T13:15:16;31.10;52.10
15359;DHT22;7779;49.596;11.070;2023-09-12T13:17:44;31.10;51.40
15359;DHT22;7779;49.596;11.070;2023-09-12T13:20:10;31.20;51.50
15359;DHT22;7779;49.596;11.070;2023-09-12T13:22:37;31.20;51.40
15359;DHT22;7779;49.596;11.070;2023-09-12T13:25:04;31.20;51.20
15359;DHT22;7779;49.596;11.070;2023-09-12T13:27:31;31.20;51.20
15359;DHT22;7779;49.596;11.070;2023-09-12T13:29:57;31.20;51.30
15359;DHT22;7779;49.596;11.070;2023-09-12T13:32:22;31.30;50.00
15359;DHT22;7779;49.596;11.070;2023-09-12T13:34:48;31.30;51.20
15359;DHT22;7779;49.596;11.070;2023-09-12T13:37:15;31.30;51.20
15359;DHT22;7779;49.596;11.070;2023-09-12T13:39:42;31.30;51.10
15359;DHT22;7779;49.596;11.070;2023-09-12T13:42:14;31.40;51.00
15359;DHT22;7779;49.596;11.070;2023-09-12T13:44:44;31.40;50.80
15359;DHT22;7779;49.596;11.070;2023-09-12T13:47:10;31.30;50.50
15359;DHT22;7779;49.596;11.070;2023-09-12T13:49:36;31.40;50.40
15359;DHT22;7779;49.596;11.070;2023-09-12T13:52:02;31.40;50.40
15359;DHT22;7779;49.596;11.070;2023-09-12T13:54:27;31.40;50.40
15359;DHT22;7779;49.596;11.070;2023-09-12T13:56:53;31.40;50.40
15359;DHT22;7779;49.596;11.070;2023-09-12T13:59:19;31.40;50.40
15359;DHT22;7779;49.596;11.070;2023-09-12T14:01:46;31.40;50.30
15359;DHT22;7779;49.596;11.070;2023-09-12T14:04:12;31.40;50.20
15359;DHT22;7779;49.596;11.070;2023-09-12T14:06:39;31.40;50.20
15359;DHT22;7779;49.596;11.070;2023-09-12T14:09:05;31.40;50.20
15359;DHT22;7779;49.596;11.070;2023-09-12T14:11:30;31.40;50.10
15359;DHT22;7779;49.596;11.070;2023-09-12T14:13:56;31.40;50.00
15359;DHT22;7779;49.596;11.070;2023-09-12T14:16:22;31.30;49.90
15359;DHT22;7779;49.596;11.070;2023-09-12T14:18:48;31.40;49.80
15359;DHT22;7779;49.596;11.070;2023-09-12T14:21:13;31.30;49.10
15359;DHT22;7779;49.596;11.070;2023-09-12T14:23:39;31.30;49.80
15359;DHT22;7779;49.596;11.070;2023-09-12T14:26:05;31.30;49.80
15359;DHT22;7779;49.596;11.070;2023-09-12T14:28:30;31.30;49.80
15359;DHT22;7779;49.596;11.070;2023-09-12T14:30:59;31.30;49.80
15359;DHT22;7779;49.596;11.070;2023-09-12T14:33:25;31.30;49.80
15359;DHT22;7779;49.596;11.070;2023-09-12T14:35:51;31.30;49.70
15359;DHT22;7779;49.596;11.070;2023-09-12T14:38:17;31.30;49.60
15359;DHT22;7779;49.596;11.070;2023-09-12T14:40:43;31.30;49.60
15359;DHT22;7779;49.596;11.070;2023-09-12T14:43:08;31.30;49.60
15359;DHT22;7779;49.596;11.070;2023-09-12T14:45:34;31.30;49.60
15359;DHT22;7779;49.596;11.070;2023-09-12T14:48:00;31.30;49.50
15359;DHT22;7779;49.596;11.070;2023-09-12T14:50:25;31.30;49.60
15359;DHT22;7779;49.596;11.070;2023-09-12T14:52:55;31.30;49.60
15359;DHT22;7779;49.596;11.070;2023-09-12T14:55:21;31.30;49.50
15359;DHT22;7779;49.596;11.070;2023-09-12T14:57:47;31.20;49.40
15359;DHT22;7779;49.596;11.070;2023-09-12T15:00:14;31.10;49.50
15359;DHT22;7779;49.596;11.070;2023-09-12T15:02:40;31.20;48.80
15359;DHT22;7779;49.596;11.070;2023-09-12T15:05:07;31.20;49.60
15359;DHT22;7779;49.596;11.070;2023-09-12T15:07:33;31.20;49.60
15359;DHT22;7779;49.596;11.070;2023-09-12T15:10:01;31.20;49.60
15359;DHT22;7779;49.596;11.070;2023-09-12T15:12:26;31.20;49.70
15359;DHT22;7779;49.596;11.070;2023-09-12T15:14:53;31.10;49.60
15359;DHT22;7779;49.596;11.070;2023-09-12T15:17:19;31.10;49.50
15359;DHT22;7779;49.596;11.070;2023-09-12T15:19:44;31.10;49.40
15359;DHT22;7779;49.596;11.070;2023-09-12T15:22:10;31.10;49.40
15359;DHT22;7779;49.596;11.070;2023-09-12T15:24:36;31.10;49.20
15359;DHT22;7779;49.596;11.070;2023-09-12T15:27:02;31.10;49.20
15359;DHT22;7779;49.596;11.070;2023-09-12T15:29:27;31.10;49.20
15359;DHT22;7779;49.596;11.070;2023-09-12T15:31:53;31.00;49.20
15359;DHT22;7779;49.596;11.070;2023-09-12T15:34:20;31.00;49.30
15359;DHT22;7779;49.596;11.070;2023-09-12T15:36:47;31.00;49.40
15359;DHT22;7779;49.596;11.070;2023-09-12T15:39:14;31.00;49.40
15359;DHT22;7779;49.596;11.070;2023-09-12T15:41:40;31.00;50.10
15359;DHT22;7779;49.596;11.070;2023-09-12T15:44:06;31.00;49.60
15359;DHT22;7779;49.596;11.070;2023-09-12T15:46:33;31.00;49.60
15359;DHT22;7779;49.596;11.070;2023-09-12T15:48:58;31.00;49.50
15359;DHT22;7779;49.596;11.070;2023-09-12T15:51:24;30.90;48.70
15359;DHT22;7779;49.596;11.070;2023-09-12T15:53:51;30.90;49.30
15359;DHT22;7779;49.596;11.070;2023-09-12T15:56:17;30.90;49.20
15359;DHT22;7779;49.596;11.070;2023-09-12T15:58:46;30.90;49.20